Taiwan Taoyuan International Airport
RCTP : now visible

Airfield :











YOU CAN JOIN US ON...

 
LOGIN :

Register | Disclaimer

   EN    FR    IT 

 









Legend :    VFR   Marginal VFR   IFR   Intensive IFR   Very Intensive IFR
Visi :
Ceiling :
>= 8 km
>= 3000ft
5 to 8 km
1000 to 3000 ft
1500m to 5 km
500 to 1000 ft
800 to 1500m
200 to 500 ft
< 800m
< 200 ft
Symbols :   Thunderstorms  Fog  Heavy snow  Heavy precipitations  Wind > 20 kt







- Airport Elevation : 106 ft
- IATA code : TPE


RCTP - Taiwan Taoyuan International

CURRENT METAR :
  • 162000Z 06020KT 9999 SCT007 BKN010 BKN020 15/13 Q1021 NOSIG RMK A3015

EXPIRED METARs :
  • 161930Z 05020KT 9999 SCT007 BKN010 BKN020 15/13 Q1021 NOSIG RMK A3015
  • 161900Z 05019KT 9999 SCT007 BKN010 BKN020 15/13 Q1020 NOSIG RMK A3014
  • 161830Z 05023KT 9999 SCT007 BKN010 BKN020 15/14 Q1020 NOSIG RMK A3013
  • 161800Z 05021KT 9999 SCT007 BKN010 BKN020 15/14 Q1021 WS R05R NOSIG RMK A3015
  • 161750Z 05020KT 9999 SCT007 BKN010 BKN020 15/14 Q1020 WS R05R NOSIG RMK A3014
  • 161730Z 04018KT 9999 SCT010 BKN015 BKN025 16/14 Q1021 NOSIG RMK A3015
  • 161700Z 05019KT 9999 FEW010 BKN015 BKN025 16/14 Q1020 NOSIG RMK A3014

TAF TAF RCTP
Valid from the 16 at 18:00 until the 18 at 00:00 UTC


161700Z 1618/1724 05018KT 9999 SCT006 BKN013 BKN020
TEMPO 1622/1702 SCT003 BKN007 BKN015
TEMPO 1703/1709 03023KT SCT010 BKN020 BKN032
TEMPO 1709/1715 5000 RA SCT003 BKN007 BKN015
TEMPO 1718/1724 10010KT SCT010 BKN020 BKN032
RCAA FIR / Asia



MET'MAP, your aeronautical weather chart ! - Copyright ORBIFLY December 2007 - Disclaimer

ORBIFLY MET'MAP TEAM :

Programming & Development : Alexandra Zaïnal
Concept & Development : Baudouin d'Aumeries
Co-Development & Prog : Marc-Olivier Méhu
Technical & hardware support : Manuel Goepfert

Contact : metmap@orbifly.com




SOURCES & CREDITS :

   NOAA       Earth
Advisory